Triple S — V2QN7 — position and weather

sailwx.info

Track history (hours):
 
Tides and Currents Weather Stations Pressure Air Temp Water Temp Dewpoint Dewpoint Depression Visibility Wind Speed Wind Dir Waves Ship Positions

Triple S

Last reported at 2017-Nov-18 16:21 UTC. Time now 2017-Nov-20 23:11 UTC.
Position N 44°25' E 013°08'.

Length 90 m; draft 5.9 m.

Type: Cargo ship. MMSI: 305948000.

Date/timePositionNaut miles runAvg speedWind from/ knotsBaromVisibWave heightAir tempDewpointWater temp
2017-Nov-18 16:21N 44°25' E 013°08'4 9.9
2017-Nov-18 15:57N 44°29' E 013°06'4 9.9
2017-Nov-18 15:30N 44°33' E 013°05'5 9.7
2017-Nov-18 15:00N 44°37' E 013°03'510.0
2017-Nov-18 14:30N 44°42' E 013°00'5 9.6
2017-Nov-18 14:00N 44°47' E 012°59'5 9.8
2017-Nov-18 13:30N 44°52' E 013°00'5 9.9
2017-Nov-18 13:00N 44°57' E 013°01'510.0
2017-Nov-18 12:30N 45°02' E 013°02'510.0
2017-Nov-18 12:00N 45°06' E 013°02'5 9.9
2017-Nov-18 11:30N 45°11' E 013°02'510.0
2017-Nov-18 11:00N 45°16' E 013°02'510.1
2017-Nov-18 10:30N 45°21' E 013°02'5 9.6
2017-Nov-18 10:00N 45°26' E 013°03'510.2
2017-Nov-18 09:30N 45°30' E 013°07'510.1
2017-Nov-18 09:00N 45°35' E 013°11'5 9.9
2017-Nov-18 08:30N 45°39' E 013°15'4 7.4
2017-Nov-18 08:00N 45°42' E 013°15'3 6.1
2017-Nov-18 07:30N 45°46' E 013°15'2 4.5
2017-Nov-18 07:00N 45°48' E 013°14'0 0.3
2017-Nov-18 06:30N 45°48' E 013°14'0 0.0
2017-Nov-18 06:00N 45°48' E 013°14'0 0.0
2017-Nov-18 05:30N 45°48' E 013°14'0 0.0
2017-Nov-18 05:00N 45°48' E 013°14'0 0.0
2017-Nov-18 04:30N 45°48' E 013°14'0 0.0
2017-Nov-18 04:00N 45°48' E 013°14'0 0.0
2017-Nov-18 03:30N 45°48' E 013°14'0 0.0
2017-Nov-18 02:57N 45°48' E 013°14'0 0.0
2017-Nov-18 02:30N 45°48' E 013°14'0 0.0
2017-Nov-18 02:00N 45°48' E 013°14'0 0.0
2017-Nov-18 01:24N 45°48' E 013°14'0 0.0
2017-Nov-18 01:00N 45°48' E 013°14'0 0.0
2017-Nov-18 00:30N 45°48' E 013°14'0 0.0
2017-Nov-18 00:00N 45°48' E 013°14'0 0.0
2017-Nov-17 23:30N 45°48' E 013°14'0 0.0
2017-Nov-17 23:00N 45°48' E 013°14'0 0.0
2017-Nov-17 22:30N 45°48' E 013°14'0 0.0
2017-Nov-17 21:54N 45°48' E 013°14'0 0.0
2017-Nov-17 21:27N 45°48' E 013°14'0 0.0
2017-Nov-17 21:00N 45°48' E 013°14'0 0.0
2017-Nov-17 20:24N 45°48' E 013°14'0 0.0
2017-Nov-17 20:00N 45°48' E 013°14'0 0.0
2017-Nov-17 19:30N 45°48' E 013°14'0 0.0
2017-Nov-17 19:00N 45°48' E 013°14'0 0.0
2017-Nov-17 18:30N 45°48' E 013°14'0 0.0
2017-Nov-17 18:00N 45°48' E 013°14'0 0.0
2017-Nov-17 17:30N 45°48' E 013°14'0 0.0
2017-Nov-17 17:00N 45°48' E 013°14'0 0.0
2017-Nov-17 16:29N 45°48' E 013°14'0 0.0
2017-Nov-17 15:57N 45°48' E 013°14'0 0.0
2017-Nov-17 15:30N 45°48' E 013°14'0 0.0
2017-Nov-17 14:54N 45°48' E 013°14'0 0.0
2017-Nov-17 14:27N 45°48' E 013°14'0 0.0
2017-Nov-17 14:00N 45°48' E 013°14'0 0.0
2017-Nov-17 13:30N 45°48' E 013°14'0 0.0
2017-Nov-17 13:00N 45°48' E 013°14'0 0.0
2017-Nov-17 12:30N 45°48' E 013°14'0 0.0
2017-Nov-17 11:57N 45°48' E 013°14'0 0.0
2017-Nov-17 11:26N 45°48' E 013°14'0 0.0
2017-Nov-17 11:00N 45°48' E 013°14'0 0.0
2017-Nov-17 10:29N 45°48' E 013°14'0 0.0
2017-Nov-17 09:57N 45°48' E 013°14'0 0.0
2017-Nov-17 09:30N 45°48' E 013°14'0 0.0
2017-Nov-17 08:57N 45°48' E 013°14'0 0.0
2017-Nov-17 08:30N 45°48' E 013°14'0 0.0
2017-Nov-17 08:00N 45°48' E 013°14'0 0.0
2017-Nov-17 07:29N 45°48' E 013°14'0 0.0
2017-Nov-17 06:59N 45°48' E 013°14'0 0.0
2017-Nov-17 06:23N 45°48' E 013°14'0 0.0
2017-Nov-17 06:00N 45°48' E 013°14'0 0.0
2017-Nov-17 05:27N 45°48' E 013°14'0 0.0
2017-Nov-17 04:57N 45°48' E 013°14'0 0.0
2017-Nov-17 04:26N 45°48' E 013°14'0 0.0
2017-Nov-17 04:00N 45°48' E 013°14'0 0.0
2017-Nov-17 03:27N 45°48' E 013°14'0 0.0
2017-Nov-17 02:59N 45°48' E 013°14'0 0.0
2017-Nov-17 02:30N 45°48' E 013°14'0 0.0
2017-Nov-17 01:56N 45°48' E 013°14'0 0.0
2017-Nov-17 01:30N 45°48' E 013°14'0 0.0
2017-Nov-17 00:56N 45°48' E 013°14'0 0.0
2017-Nov-17 00:26N 45°48' E 013°14'0 0.0
2017-Nov-16 23:59N 45°48' E 013°14'0 0.0
2017-Nov-16 23:27N 45°48' E 013°14'0 0.0
2017-Nov-16 22:56N 45°48' E 013°14'0 0.0
2017-Nov-16 22:20N 45°48' E 013°14'0 0.0
2017-Nov-16 21:59N 45°48' E 013°14'0 0.0
2017-Nov-16 21:23N 45°48' E 013°14'0 0.0
2017-Nov-16 20:59N 45°48' E 013°14'0 0.0
2017-Nov-16 20:26N 45°48' E 013°14'0 0.0
2017-Nov-16 19:59N 45°48' E 013°14'0 0.0
2017-Nov-16 19:23N 45°48' E 013°14'0 0.0
2017-Nov-16 18:59N 45°48' E 013°14'0 0.0
2017-Nov-16 18:29N 45°48' E 013°14'0 0.0
2017-Nov-16 17:59N 45°48' E 013°14'0 0.0
2017-Nov-16 17:29N 45°48' E 013°14'0 0.0
2017-Nov-16 16:56N 45°48' E 013°14'0 0.0
2017-Nov-16 16:29N 45°48' E 013°14'0 0.0
2017-Nov-16 15:59N 45°48' E 013°14'0 0.0
2017-Nov-16 15:29N 45°48' E 013°14'0 0.0
2017-Nov-16 14:59N 45°48' E 013°14'0 0.0
2017-Nov-16 14:29N 45°48' E 013°14'0 0.0
2017-Nov-16 13:59N 45°48' E 013°14'0 0.0
2017-Nov-16 13:29N 45°48' E 013°14'0 0.0
2017-Nov-16 12:53N 45°48' E 013°14'0 0.0
2017-Nov-16 12:20N 45°48' E 013°14'0 0.0
2017-Nov-16 11:59N 45°48' E 013°14'0 0.0
2017-Nov-16 11:26N 45°48' E 013°14'0 0.0
2017-Nov-16 10:59N 45°48' E 013°14'0 0.0
2017-Nov-16 10:29N 45°48' E 013°14'0 0.0
2017-Nov-16 09:59N 45°48' E 013°14'0 0.0
2017-Nov-16 09:26N 45°48' E 013°14'0 0.0
2017-Nov-16 08:59N 45°48' E 013°14'0 0.0
2017-Nov-16 08:29N 45°48' E 013°14'0 0.0
2017-Nov-16 07:56N 45°48' E 013°14'0 0.0
2017-Nov-16 07:26N 45°48' E 013°14'0 0.0
2017-Nov-16 07:00N 45°48' E 013°14'1 2.2
2017-Nov-16 06:30N 45°47' E 013°15'4 7.9
2017-Nov-16 06:00N 45°43' E 013°15'5 9.1
2017-Nov-16 05:30N 45°38' E 013°16'4 8.7
2017-Nov-16 05:00N 45°34' E 013°14'4 7.5
2017-Nov-16 04:30N 45°31' E 013°13'4 8.1
2017-Nov-16 04:00N 45°27' E 013°12'4 8.6
2017-Nov-16 03:30N 45°22' E 013°12'4 9.0
2017-Nov-16 03:00N 45°18' E 013°13'5 9.2
2017-Nov-16 02:30N 45°13' E 013°14'5 9.3
2017-Nov-16 01:59N 45°09' E 013°15'5 9.9
2017-Nov-16 01:30N 45°04' E 013°16'5 9.8
2017-Nov-16 01:00N 44°60' E 013°20'510.4
2017-Nov-16 00:30N 44°55' E 013°23'510.8
2017-Nov-16 00:00N 44°51' E 013°27'510.5
2017-Nov-15 23:30N 44°46' E 013°31'510.3
2017-Nov-15 23:00N 44°42' E 013°35'510.2
2017-Nov-15 22:30N 44°37' E 013°39'510.1
2017-Nov-15 22:00N 44°33' E 013°42'510.0
2017-Nov-15 21:30N 44°29' E 013°46'510.0
2017-Nov-15 21:00N 44°25' E 013°50'510.1
2017-Nov-15 20:30N 44°21' E 013°54'710.3
2017-Nov-15 19:49N 44°15' E 013°60'  
2017-Nov-11 11:05N 37°44' E 016°04'1 9.3
2017-Nov-11 11:00N 37°44' E 016°03'5 9.2
2017-Nov-11 10:27N 37°39' E 015°60'4 9.1
2017-Nov-11 09:58N 37°36' E 015°57'5 9.1
2017-Nov-11 09:25N 37°31' E 015°53'  
Track history (hours):
 
Tides and Currents Weather Stations Pressure Air Temp Water Temp Dewpoint Dewpoint Depression Visibility Wind Speed Wind Dir Waves Ship Positions

Triple S

Last reported at 2017-Nov-18 16:21 UTC. Time now 2017-Nov-20 23:11 UTC.
Position N 44°25' E 013°08'.

Length 90 m; draft 5.9 m.

Type: Cargo ship. MMSI: 305948000.

Date/timePositionNaut miles runAvg speedWind from/ knotsBaromVisibWave heightAir tempDewpointWater temp
2017-Nov-18 16:21N 44°25' E 013°08'4 9.9
2017-Nov-18 15:57N 44°29' E 013°06'4 9.9
2017-Nov-18 15:30N 44°33' E 013°05'5 9.7
2017-Nov-18 15:00N 44°37' E 013°03'510.0
2017-Nov-18 14:30N 44°42' E 013°00'5 9.6
2017-Nov-18 14:00N 44°47' E 012°59'5 9.8
2017-Nov-18 13:30N 44°52' E 013°00'5 9.9
2017-Nov-18 13:00N 44°57' E 013°01'510.0
2017-Nov-18 12:30N 45°02' E 013°02'510.0
2017-Nov-18 12:00N 45°06' E 013°02'5 9.9
2017-Nov-18 11:30N 45°11' E 013°02'510.0
2017-Nov-18 11:00N 45°16' E 013°02'510.1
2017-Nov-18 10:30N 45°21' E 013°02'5 9.6
2017-Nov-18 10:00N 45°26' E 013°03'510.2
2017-Nov-18 09:30N 45°30' E 013°07'510.1
2017-Nov-18 09:00N 45°35' E 013°11'5 9.9
2017-Nov-18 08:30N 45°39' E 013°15'4 7.4
2017-Nov-18 08:00N 45°42' E 013°15'3 6.1
2017-Nov-18 07:30N 45°46' E 013°15'2 4.5
2017-Nov-18 07:00N 45°48' E 013°14'0 0.3
2017-Nov-18 06:30N 45°48' E 013°14'0 0.0
2017-Nov-18 06:00N 45°48' E 013°14'0 0.0
2017-Nov-18 05:30N 45°48' E 013°14'0 0.0
2017-Nov-18 05:00N 45°48' E 013°14'0 0.0
2017-Nov-18 04:30N 45°48' E 013°14'0 0.0
2017-Nov-18 04:00N 45°48' E 013°14'0 0.0
2017-Nov-18 03:30N 45°48' E 013°14'0 0.0
2017-Nov-18 02:57N 45°48' E 013°14'0 0.0
2017-Nov-18 02:30N 45°48' E 013°14'0 0.0
2017-Nov-18 02:00N 45°48' E 013°14'0 0.0
2017-Nov-18 01:24N 45°48' E 013°14'0 0.0
2017-Nov-18 01:00N 45°48' E 013°14'0 0.0
2017-Nov-18 00:30N 45°48' E 013°14'0 0.0
2017-Nov-18 00:00N 45°48' E 013°14'0 0.0
2017-Nov-17 23:30N 45°48' E 013°14'0 0.0
2017-Nov-17 23:00N 45°48' E 013°14'0 0.0
2017-Nov-17 22:30N 45°48' E 013°14'0 0.0
2017-Nov-17 21:54N 45°48' E 013°14'0 0.0
2017-Nov-17 21:27N 45°48' E 013°14'0 0.0
2017-Nov-17 21:00N 45°48' E 013°14'0 0.0
2017-Nov-17 20:24N 45°48' E 013°14'0 0.0
2017-Nov-17 20:00N 45°48' E 013°14'0 0.0
2017-Nov-17 19:30N 45°48' E 013°14'0 0.0
2017-Nov-17 19:00N 45°48' E 013°14'0 0.0
2017-Nov-17 18:30N 45°48' E 013°14'0 0.0
2017-Nov-17 18:00N 45°48' E 013°14'0 0.0
2017-Nov-17 17:30N 45°48' E 013°14'0 0.0
2017-Nov-17 17:00N 45°48' E 013°14'0 0.0
2017-Nov-17 16:29N 45°48' E 013°14'0 0.0
2017-Nov-17 15:57N 45°48' E 013°14'0 0.0
2017-Nov-17 15:30N 45°48' E 013°14'0 0.0
2017-Nov-17 14:54N 45°48' E 013°14'0 0.0
2017-Nov-17 14:27N 45°48' E 013°14'0 0.0
2017-Nov-17 14:00N 45°48' E 013°14'0 0.0
2017-Nov-17 13:30N 45°48' E 013°14'0 0.0
2017-Nov-17 13:00N 45°48' E 013°14'0 0.0
2017-Nov-17 12:30N 45°48' E 013°14'0 0.0
2017-Nov-17 11:57N 45°48' E 013°14'0 0.0
2017-Nov-17 11:26N 45°48' E 013°14'0 0.0
2017-Nov-17 11:00N 45°48' E 013°14'0 0.0
2017-Nov-17 10:29N 45°48' E 013°14'0 0.0
2017-Nov-17 09:57N 45°48' E 013°14'0 0.0
2017-Nov-17 09:30N 45°48' E 013°14'0 0.0
2017-Nov-17 08:57N 45°48' E 013°14'0 0.0
2017-Nov-17 08:30N 45°48' E 013°14'0 0.0
2017-Nov-17 08:00N 45°48' E 013°14'0 0.0
2017-Nov-17 07:29N 45°48' E 013°14'0 0.0
2017-Nov-17 06:59N 45°48' E 013°14'0 0.0
2017-Nov-17 06:23N 45°48' E 013°14'0 0.0
2017-Nov-17 06:00N 45°48' E 013°14'0 0.0
2017-Nov-17 05:27N 45°48' E 013°14'0 0.0
2017-Nov-17 04:57N 45°48' E 013°14'0 0.0
2017-Nov-17 04:26N 45°48' E 013°14'0 0.0
2017-Nov-17 04:00N 45°48' E 013°14'0 0.0
2017-Nov-17 03:27N 45°48' E 013°14'0 0.0
2017-Nov-17 02:59N 45°48' E 013°14'0 0.0
2017-Nov-17 02:30N 45°48' E 013°14'0 0.0
2017-Nov-17 01:56N 45°48' E 013°14'0 0.0
2017-Nov-17 01:30N 45°48' E 013°14'0 0.0
2017-Nov-17 00:56N 45°48' E 013°14'0 0.0
2017-Nov-17 00:26N 45°48' E 013°14'0 0.0
2017-Nov-16 23:59N 45°48' E 013°14'0 0.0
2017-Nov-16 23:27N 45°48' E 013°14'0 0.0
2017-Nov-16 22:56N 45°48' E 013°14'0 0.0
2017-Nov-16 22:20N 45°48' E 013°14'0 0.0
2017-Nov-16 21:59N 45°48' E 013°14'0 0.0
2017-Nov-16 21:23N 45°48' E 013°14'0 0.0
2017-Nov-16 20:59N 45°48' E 013°14'0 0.0
2017-Nov-16 20:26N 45°48' E 013°14'0 0.0
2017-Nov-16 19:59N 45°48' E 013°14'0 0.0
2017-Nov-16 19:23N 45°48' E 013°14'0 0.0
2017-Nov-16 18:59N 45°48' E 013°14'0 0.0
2017-Nov-16 18:29N 45°48' E 013°14'0 0.0
2017-Nov-16 17:59N 45°48' E 013°14'0 0.0
2017-Nov-16 17:29N 45°48' E 013°14'0 0.0
2017-Nov-16 16:56N 45°48' E 013°14'0 0.0
2017-Nov-16 16:29N 45°48' E 013°14'0 0.0
2017-Nov-16 15:59N 45°48' E 013°14'0 0.0
2017-Nov-16 15:29N 45°48' E 013°14'0 0.0
2017-Nov-16 14:59N 45°48' E 013°14'0 0.0
2017-Nov-16 14:29N 45°48' E 013°14'0 0.0
2017-Nov-16 13:59N 45°48' E 013°14'0 0.0
2017-Nov-16 13:29N 45°48' E 013°14'0 0.0
2017-Nov-16 12:53N 45°48' E 013°14'0 0.0
2017-Nov-16 12:20N 45°48' E 013°14'0 0.0
2017-Nov-16 11:59N 45°48' E 013°14'0 0.0
2017-Nov-16 11:26N 45°48' E 013°14'0 0.0
2017-Nov-16 10:59N 45°48' E 013°14'0 0.0
2017-Nov-16 10:29N 45°48' E 013°14'0 0.0
2017-Nov-16 09:59N 45°48' E 013°14'0 0.0
2017-Nov-16 09:26N 45°48' E 013°14'0 0.0
2017-Nov-16 08:59N 45°48' E 013°14'0 0.0
2017-Nov-16 08:29N 45°48' E 013°14'0 0.0
2017-Nov-16 07:56N 45°48' E 013°14'0 0.0
2017-Nov-16 07:26N 45°48' E 013°14'0 0.0
2017-Nov-16 07:00N 45°48' E 013°14'1 2.2
2017-Nov-16 06:30N 45°47' E 013°15'4 7.9
2017-Nov-16 06:00N 45°43' E 013°15'5 9.1
2017-Nov-16 05:30N 45°38' E 013°16'4 8.7
2017-Nov-16 05:00N 45°34' E 013°14'4 7.5
2017-Nov-16 04:30N 45°31' E 013°13'4 8.1
2017-Nov-16 04:00N 45°27' E 013°12'4 8.6
2017-Nov-16 03:30N 45°22' E 013°12'4 9.0
2017-Nov-16 03:00N 45°18' E 013°13'5 9.2
2017-Nov-16 02:30N 45°13' E 013°14'5 9.3
2017-Nov-16 01:59N 45°09' E 013°15'5 9.9
2017-Nov-16 01:30N 45°04' E 013°16'5 9.8
2017-Nov-16 01:00N 44°60' E 013°20'510.4
2017-Nov-16 00:30N 44°55' E 013°23'510.8
2017-Nov-16 00:00N 44°51' E 013°27'510.5
2017-Nov-15 23:30N 44°46' E 013°31'510.3
2017-Nov-15 23:00N 44°42' E 013°35'510.2
2017-Nov-15 22:30N 44°37' E 013°39'510.1
2017-Nov-15 22:00N 44°33' E 013°42'510.0
2017-Nov-15 21:30N 44°29' E 013°46'510.0
2017-Nov-15 21:00N 44°25' E 013°50'510.1
2017-Nov-15 20:30N 44°21' E 013°54'710.3
2017-Nov-15 19:49N 44°15' E 013°60'  
2017-Nov-11 11:05N 37°44' E 016°04'1 9.3
2017-Nov-11 11:00N 37°44' E 016°03'5 9.2
2017-Nov-11 10:27N 37°39' E 015°60'4 9.1
2017-Nov-11 09:58N 37°36' E 015°57'5 9.1
2017-Nov-11 09:25N 37°31' E 015°53'  

Dump ship's entire track history